sensor_id;sensor_type;location;lat;lon;timestamp;pressure;altitude;pressure_sealevel;temperature;humidity
76132;BME280;64877;50.994;13.650;2024-03-22T00:00:46;100223.69;;;10.81;80.88
76132;BME280;64877;50.994;13.650;2024-03-22T00:03:12;100228.00;;;10.83;80.66
76132;BME280;64877;50.994;13.650;2024-03-22T00:05:37;100219.03;;;10.83;80.37
76132;BME280;64877;50.994;13.650;2024-03-22T00:08:03;100220.88;;;10.82;80.98
76132;BME280;64877;50.994;13.650;2024-03-22T00:10:28;100227.38;;;10.80;80.39
76132;BME280;64877;50.994;13.650;2024-03-22T00:12:53;100224.56;;;10.81;80.67
76132;BME280;64877;50.994;13.650;2024-03-22T00:15:19;100219.03;;;10.83;80.45
76132;BME280;64877;50.994;13.650;2024-03-22T00:17:45;100218.94;;;10.84;80.26
76132;BME280;64877;50.994;13.650;2024-03-22T00:20:11;100218.28;;;10.81;80.29
76132;BME280;64877;50.994;13.650;2024-03-22T00:22:36;100224.34;;;10.84;79.84
76132;BME280;64877;50.994;13.650;2024-03-22T00:25:01;100213.56;;;10.84;80.24
76132;BME280;64877;50.994;13.650;2024-03-22T00:27:27;100216.56;;;10.80;80.51
76132;BME280;64877;50.994;13.650;2024-03-22T00:29:53;100217.19;;;10.83;80.22
76132;BME280;64877;50.994;13.650;2024-03-22T00:32:18;100205.53;;;10.83;80.90
76132;BME280;64877;50.994;13.650;2024-03-22T00:34:43;100204.97;;;10.78;79.71
76132;BME280;64877;50.994;13.650;2024-03-22T00:37:10;100198.72;;;10.77;79.98
76132;BME280;64877;50.994;13.650;2024-03-22T00:39:35;100199.50;;;10.79;80.32
76132;BME280;64877;50.994;13.650;2024-03-22T00:42:01;100193.44;;;10.76;80.68
76132;BME280;64877;50.994;13.650;2024-03-22T00:44:26;100202.28;;;10.78;79.94
76132;BME280;64877;50.994;13.650;2024-03-22T00:46:52;100198.50;;;10.80;80.09
76132;BME280;64877;50.994;13.650;2024-03-22T00:49:17;100188.69;;;10.79;80.11
76132;BME280;64877;50.994;13.650;2024-03-22T00:51:42;100186.19;;;10.76;79.68
76132;BME280;64877;50.994;13.650;2024-03-22T00:54:12;100185.75;;;10.70;80.61
76132;BME280;64877;50.994;13.650;2024-03-22T00:56:38;100180.91;;;10.75;79.94
76132;BME280;64877;50.994;13.650;2024-03-22T00:59:03;100177.44;;;10.73;80.54
76132;BME280;64877;50.994;13.650;2024-03-22T01:01:28;100179.38;;;10.71;80.28
76132;BME280;64877;50.994;13.650;2024-03-22T01:03:54;100182.53;;;10.65;80.68
76132;BME280;64877;50.994;13.650;2024-03-22T01:06:19;100182.41;;;10.66;80.68
76132;BME280;64877;50.994;13.650;2024-03-22T01:08:50;100181.53;;;10.66;80.15
76132;BME280;64877;50.994;13.650;2024-03-22T01:11:17;100177.97;;;10.65;80.26
76132;BME280;64877;50.994;13.650;2024-03-22T01:13:42;100173.53;;;10.64;80.23
76132;BME280;64877;50.994;13.650;2024-03-22T01:16:08;100175.69;;;10.59;79.98
76132;BME280;64877;50.994;13.650;2024-03-22T01:18:35;100172.91;;;10.60;79.76
76132;BME280;64877;50.994;13.650;2024-03-22T01:21:01;100168.34;;;10.61;79.80
76132;BME280;64877;50.994;13.650;2024-03-22T01:23:27;100159.28;;;10.62;80.00
76132;BME280;64877;50.994;13.650;2024-03-22T01:25:52;100157.44;;;10.63;79.72
76132;BME280;64877;50.994;13.650;2024-03-22T01:28:18;100148.66;;;10.59;79.57
76132;BME280;64877;50.994;13.650;2024-03-22T01:30:43;100140.47;;;10.60;79.23
76132;BME280;64877;50.994;13.650;2024-03-22T01:33:09;100142.19;;;10.61;79.25
76132;BME280;64877;50.994;13.650;2024-03-22T01:35:34;100140.69;;;10.57;79.90
76132;BME280;64877;50.994;13.650;2024-03-22T01:38:00;100133.69;;;10.55;79.05
76132;BME280;64877;50.994;13.650;2024-03-22T01:40:25;100147.38;;;10.52;79.79
76132;BME280;64877;50.994;13.650;2024-03-22T01:42:57;100142.84;;;10.52;78.75
76132;BME280;64877;50.994;13.650;2024-03-22T01:45:23;100132.03;;;10.52;79.67
76132;BME280;64877;50.994;13.650;2024-03-22T01:47:52;100129.56;;;10.49;79.53
76132;BME280;64877;50.994;13.650;2024-03-22T01:50:21;100132.47;;;10.46;80.18
76132;BME280;64877;50.994;13.650;2024-03-22T01:52:47;100123.63;;;10.44;80.63
76132;BME280;64877;50.994;13.650;2024-03-22T01:55:13;100125.56;;;10.42;80.25
76132;BME280;64877;50.994;13.650;2024-03-22T01:57:39;100125.97;;;10.36;80.49
76132;BME280;64877;50.994;13.650;2024-03-22T02:00:06;100112.81;;;10.31;81.09
76132;BME280;64877;50.994;13.650;2024-03-22T02:02:39;100119.06;;;10.32;81.24
76132;BME280;64877;50.994;13.650;2024-03-22T02:05:18;100112.69;;;10.33;81.12
76132;BME280;64877;50.994;13.650;2024-03-22T02:07:47;100106.66;;;10.29;80.99
76132;BME280;64877;50.994;13.650;2024-03-22T02:10:13;100107.59;;;10.28;80.96
76132;BME280;64877;50.994;13.650;2024-03-22T02:12:39;100105.22;;;10.24;81.65
76132;BME280;64877;50.994;13.650;2024-03-22T02:15:06;100105.22;;;10.24;81.67
76132;BME280;64877;50.994;13.650;2024-03-22T02:17:35;100095.31;;;10.24;81.88
76132;BME280;64877;50.994;13.650;2024-03-22T02:20:01;100088.13;;;10.23;81.68
76132;BME280;64877;50.994;13.650;2024-03-22T02:22:27;100089.44;;;10.18;82.29
76132;BME280;64877;50.994;13.650;2024-03-22T02:24:53;100090.59;;;10.14;82.10
76132;BME280;64877;50.994;13.650;2024-03-22T02:27:19;100084.34;;;10.13;82.32
76132;BME280;64877;50.994;13.650;2024-03-22T02:29:44;100082.81;;;10.09;82.76
76132;BME280;64877;50.994;13.650;2024-03-22T02:32:10;100076.47;;;10.10;82.77
76132;BME280;64877;50.994;13.650;2024-03-22T02:34:35;100072.38;;;10.04;83.29
76132;BME280;64877;50.994;13.650;2024-03-22T02:37:01;100067.84;;;10.05;82.90
76132;BME280;64877;50.994;13.650;2024-03-22T02:39:26;100060.59;;;10.05;82.74
76132;BME280;64877;50.994;13.650;2024-03-22T02:41:54;100067.06;;;10.03;83.49
76132;BME280;64877;50.994;13.650;2024-03-22T02:44:19;100063.31;;;10.05;83.78
76132;BME280;64877;50.994;13.650;2024-03-22T02:46:44;100059.06;;;10.01;83.75
76132;BME280;64877;50.994;13.650;2024-03-22T02:49:10;100061.97;;;9.98;84.49
76132;BME280;64877;50.994;13.650;2024-03-22T02:51:35;100056.38;;;10.01;84.07
76132;BME280;64877;50.994;13.650;2024-03-22T02:54:01;100062.75;;;10.00;84.24
76132;BME280;64877;50.994;13.650;2024-03-22T02:56:27;100049.47;;;9.97;84.25
76132;BME280;64877;50.994;13.650;2024-03-22T02:58:53;100045.25;;;9.93;84.78
76132;BME280;64877;50.994;13.650;2024-03-22T03:01:18;100039.97;;;9.92;84.09
76132;BME280;64877;50.994;13.650;2024-03-22T03:03:44;100040.81;;;9.92;84.43
76132;BME280;64877;50.994;13.650;2024-03-22T03:06:09;100056.25;;;9.90;84.37
76132;BME280;64877;50.994;13.650;2024-03-22T03:08:35;100047.19;;;9.91;84.84
76132;BME280;64877;50.994;13.650;2024-03-22T03:11:00;100046.84;;;9.83;85.29
76132;BME280;64877;50.994;13.650;2024-03-22T03:13:26;100041.25;;;9.86;85.31
76132;BME280;64877;50.994;13.650;2024-03-22T03:15:51;100045.56;;;9.89;85.09
76132;BME280;64877;50.994;13.650;2024-03-22T03:18:17;100044.91;;;9.85;85.67
76132;BME280;64877;50.994;13.650;2024-03-22T03:20:43;100045.13;;;9.82;85.61
76132;BME280;64877;50.994;13.650;2024-03-22T03:23:08;100037.13;;;9.80;86.06
76132;BME280;64877;50.994;13.650;2024-03-22T03:25:33;100033.59;;;9.80;86.33
76132;BME280;64877;50.994;13.650;2024-03-22T03:27:59;100029.91;;;9.81;86.50
76132;BME280;64877;50.994;13.650;2024-03-22T03:30:24;100028.19;;;9.80;86.04
76132;BME280;64877;50.994;13.650;2024-03-22T03:32:49;100027.22;;;9.81;85.98
76132;BME280;64877;50.994;13.650;2024-03-22T03:35:15;100025.50;;;9.80;86.64
76132;BME280;64877;50.994;13.650;2024-03-22T03:37:40;100018.56;;;9.76;86.88
76132;BME280;64877;50.994;13.650;2024-03-22T03:40:06;100018.56;;;9.76;87.16
76132;BME280;64877;50.994;13.650;2024-03-22T03:42:32;100017.06;;;9.72;87.64
76132;BME280;64877;50.994;13.650;2024-03-22T03:44:57;100007.25;;;9.71;87.53
76132;BME280;64877;50.994;13.650;2024-03-22T03:47:23;100012.72;;;9.69;87.97
76132;BME280;64877;50.994;13.650;2024-03-22T03:49:48;100012.72;;;9.69;87.66
76132;BME280;64877;50.994;13.650;2024-03-22T03:52:14;100009.38;;;9.66;88.07
76132;BME280;64877;50.994;13.650;2024-03-22T03:54:39;100014.00;;;9.64;88.15
76132;BME280;64877;50.994;13.650;2024-03-22T03:57:05;100020.91;;;9.68;88.04
76132;BME280;64877;50.994;13.650;2024-03-22T03:59:30;100004.53;;;9.71;88.37
76132;BME280;64877;50.994;13.650;2024-03-22T04:01:56;100009.06;;;9.70;87.98
76132;BME280;64877;50.994;13.650;2024-03-22T04:04:22;100010.91;;;9.70;87.88
76132;BME280;64877;50.994;13.650;2024-03-22T04:06:47;100009.94;;;9.71;87.41
76132;BME280;64877;50.994;13.650;2024-03-22T04:09:13;100002.59;;;9.73;86.70
76132;BME280;64877;50.994;13.650;2024-03-22T04:11:38;100002.38;;;9.76;86.37
76132;BME280;64877;50.994;13.650;2024-03-22T04:14:04;100003.44;;;9.73;86.47
76132;BME280;64877;50.994;13.650;2024-03-22T04:16:31;99995.28;;;9.75;85.88
76132;BME280;64877;50.994;13.650;2024-03-22T04:18:56;99988.34;;;9.71;86.33
76132;BME280;64877;50.994;13.650;2024-03-22T04:21:22;99992.78;;;9.72;85.85
76132;BME280;64877;50.994;13.650;2024-03-22T04:23:47;99993.53;;;9.74;86.03
76132;BME280;64877;50.994;13.650;2024-03-22T04:26:13;99985.44;;;9.74;86.10
76132;BME280;64877;50.994;13.650;2024-03-22T04:28:38;99988.03;;;9.75;86.22
76132;BME280;64877;50.994;13.650;2024-03-22T04:31:05;99987.59;;;9.69;86.59
76132;BME280;64877;50.994;13.650;2024-03-22T04:33:32;99975.31;;;9.65;86.45
76132;BME280;64877;50.994;13.650;2024-03-22T04:35:58;99978.63;;;9.68;87.04
76132;BME280;64877;50.994;13.650;2024-03-22T04:38:25;99972.38;;;9.68;85.83
76132;BME280;64877;50.994;13.650;2024-03-22T04:40:51;99967.84;;;9.68;86.27
76132;BME280;64877;50.994;13.650;2024-03-22T04:43:17;99969.69;;;9.68;86.18
76132;BME280;64877;50.994;13.650;2024-03-22T04:45:43;99967.84;;;9.68;84.88
76132;BME280;64877;50.994;13.650;2024-03-22T04:48:08;99963.31;;;9.69;85.02
76132;BME280;64877;50.994;13.650;2024-03-22T04:50:34;99959.88;;;9.67;84.83
76132;BME280;64877;50.994;13.650;2024-03-22T04:53:00;99956.31;;;9.66;84.54
76132;BME280;64877;50.994;13.650;2024-03-22T04:55:26;99956.19;;;9.68;84.59
76132;BME280;64877;50.994;13.650;2024-03-22T04:57:52;99957.06;;;9.68;84.56
76132;BME280;64877;50.994;13.650;2024-03-22T05:00:18;99957.19;;;9.67;84.87
76132;BME280;64877;50.994;13.650;2024-03-22T05:02:43;99953.38;;;9.69;84.43
76132;BME280;64877;50.994;13.650;2024-03-22T05:05:09;99959.44;;;9.73;84.50
76132;BME280;64877;50.994;13.650;2024-03-22T05:07:35;99955.13;;;9.70;84.54
76132;BME280;64877;50.994;13.650;2024-03-22T05:10:01;99964.63;;;9.76;84.11
76132;BME280;64877;50.994;13.650;2024-03-22T05:12:26;99959.00;;;9.79;84.20
76132;BME280;64877;50.994;13.650;2024-03-22T05:14:52;99959.78;;;9.81;84.13
76132;BME280;64877;50.994;13.650;2024-03-22T05:17:17;99957.09;;;9.81;83.88
76132;BME280;64877;50.994;13.650;2024-03-22T05:19:43;99946.19;;;9.82;83.40
76132;BME280;64877;50.994;13.650;2024-03-22T05:22:08;99950.59;;;9.83;82.86
76132;BME280;64877;50.994;13.650;2024-03-22T05:24:33;99951.47;;;9.84;82.76
76132;BME280;64877;50.994;13.650;2024-03-22T05:26:59;99942.41;;;9.85;82.67
76132;BME280;64877;50.994;13.650;2024-03-22T05:29:25;99939.81;;;9.83;82.04
76132;BME280;64877;50.994;13.650;2024-03-22T05:31:50;99943.69;;;9.92;81.74
76132;BME280;64877;50.994;13.650;2024-03-22T05:34:17;99925.56;;;9.94;80.87
76132;BME280;64877;50.994;13.650;2024-03-22T05:36:43;99927.06;;;9.98;80.35
76132;BME280;64877;50.994;13.650;2024-03-22T05:39:08;99925.88;;;10.02;79.45
76132;BME280;64877;50.994;13.650;2024-03-22T05:41:36;99918.91;;;10.00;79.44
76132;BME280;64877;50.994;13.650;2024-03-22T05:44:01;99916.81;;;10.03;79.22
76132;BME280;64877;50.994;13.650;2024-03-22T05:46:28;99918.56;;;10.04;79.77
76132;BME280;64877;50.994;13.650;2024-03-22T05:48:54;99918.84;;;10.13;78.80
76132;BME280;64877;50.994;13.650;2024-03-22T05:51:19;99918.75;;;10.14;78.64
76132;BME280;64877;50.994;13.650;2024-03-22T05:53:45;99912.59;;;10.12;78.40
76132;BME280;64877;50.994;13.650;2024-03-22T05:56:10;99913.88;;;10.19;77.90
76132;BME280;64877;50.994;13.650;2024-03-22T05:58:36;99910.22;;;10.20;76.82
76132;BME280;64877;50.994;13.650;2024-03-22T06:01:02;99917.22;;;10.23;76.87
76132;BME280;64877;50.994;13.650;2024-03-22T06:03:28;99909.69;;;10.28;76.33
76132;BME280;64877;50.994;13.650;2024-03-22T06:05:54;99914.09;;;10.29;76.38
76132;BME280;64877;50.994;13.650;2024-03-22T06:08:22;99903.44;;;10.27;75.76
76132;BME280;64877;50.994;13.650;2024-03-22T06:10:48;99911.72;;;10.37;76.38
76132;BME280;64877;50.994;13.650;2024-03-22T06:13:13;99911.28;;;10.43;75.81
76132;BME280;64877;50.994;13.650;2024-03-22T06:15:41;99903.69;;;10.48;75.32
76132;BME280;64877;50.994;13.650;2024-03-22T06:18:10;99903.50;;;10.51;73.48
76132;BME280;64877;50.994;13.650;2024-03-22T06:20:35;99900.66;;;10.53;73.85
76132;BME280;64877;50.994;13.650;2024-03-22T06:23:00;99892.56;;;10.53;73.66
76132;BME280;64877;50.994;13.650;2024-03-22T06:25:26;99901.09;;;10.59;73.19
76132;BME280;64877;50.994;13.650;2024-03-22T06:27:52;99897.94;;;10.66;72.54
76132;BME280;64877;50.994;13.650;2024-03-22T06:30:17;99903.84;;;10.71;72.30
76132;BME280;64877;50.994;13.650;2024-03-22T06:32:42;99897.78;;;10.80;71.46
76132;BME280;64877;50.994;13.650;2024-03-22T06:35:08;99889.50;;;10.94;70.61
76132;BME280;64877;50.994;13.650;2024-03-22T06:37:33;99897.13;;;11.00;70.59
76132;BME280;64877;50.994;13.650;2024-03-22T06:39:59;99889.78;;;11.13;69.09
76132;BME280;64877;50.994;13.650;2024-03-22T06:42:24;99891.06;;;11.21;68.71
76132;BME280;64877;50.994;13.650;2024-03-22T06:44:51;99887.19;;;11.36;67.79
76132;BME280;64877;50.994;13.650;2024-03-22T06:47:16;99888.94;;;11.48;67.76
76132;BME280;64877;50.994;13.650;2024-03-22T06:49:41;99881.94;;;11.57;67.58
76132;BME280;64877;50.994;13.650;2024-03-22T06:52:07;99871.50;;;11.63;65.37
76132;BME280;64877;50.994;13.650;2024-03-22T06:54:32;99865.13;;;11.76;65.41
76132;BME280;64877;50.994;13.650;2024-03-22T06:56:58;99858.28;;;11.94;64.43
76132;BME280;64877;50.994;13.650;2024-03-22T06:59:23;99851.75;;;11.97;64.39
76132;BME280;64877;50.994;13.650;2024-03-22T07:01:49;99839.56;;;12.02;64.08
76132;BME280;64877;50.994;13.650;2024-03-22T07:04:14;99838.72;;;12.02;63.91
76132;BME280;64877;50.994;13.650;2024-03-22T07:06:40;99839.59;;;12.13;64.35
76132;BME280;64877;50.994;13.650;2024-03-22T07:09:07;99847.94;;;12.10;64.01
76132;BME280;64877;50.994;13.650;2024-03-22T07:11:33;99847.22;;;12.08;63.63
76132;BME280;64877;50.994;13.650;2024-03-22T07:14:01;99852.25;;;12.24;63.42
76132;BME280;64877;50.994;13.650;2024-03-22T07:16:27;99846.94;;;12.23;63.97
76132;BME280;64877;50.994;13.650;2024-03-22T07:18:52;99842.66;;;12.20;63.45
76132;BME280;64877;50.994;13.650;2024-03-22T07:21:18;99849.28;;;12.27;64.19
76132;BME280;64877;50.994;13.650;2024-03-22T07:23:43;99845.44;;;12.41;63.24
76132;BME280;64877;50.994;13.650;2024-03-22T07:26:09;99842.97;;;12.49;63.10
76132;BME280;64877;50.994;13.650;2024-03-22T07:28:34;99832.47;;;12.56;62.36
76132;BME280;64877;50.994;13.650;2024-03-22T07:31:00;99832.72;;;12.53;62.32
76132;BME280;64877;50.994;13.650;2024-03-22T07:33:25;99837.75;;;12.57;62.30
76132;BME280;64877;50.994;13.650;2024-03-22T07:35:50;99832.81;;;12.62;62.43
76132;BME280;64877;50.994;13.650;2024-03-22T07:38:17;99835.91;;;12.69;62.17
76132;BME280;64877;50.994;13.650;2024-03-22T07:40:42;99835.00;;;12.80;62.21
76132;BME280;64877;50.994;13.650;2024-03-22T07:43:07;99830.81;;;12.76;61.86
76132;BME280;64877;50.994;13.650;2024-03-22T07:45:36;99830.75;;;12.87;61.31
76132;BME280;64877;50.994;13.650;2024-03-22T07:48:02;99830.72;;;12.98;60.97
76132;BME280;64877;50.994;13.650;2024-03-22T07:50:28;99831.28;;;13.13;60.75
76132;BME280;64877;50.994;13.650;2024-03-22T07:52:54;99824.28;;;13.31;60.36
76132;BME280;64877;50.994;13.650;2024-03-22T07:55:19;99819.38;;;13.46;59.29
76132;BME280;64877;50.994;13.650;2024-03-22T07:57:45;99814.31;;;13.62;59.15
76132;BME280;64877;50.994;13.650;2024-03-22T08:00:11;99814.53;;;13.70;58.32
76132;BME280;64877;50.994;13.650;2024-03-22T08:02:39;99809.84;;;13.82;58.01
76132;BME280;64877;50.994;13.650;2024-03-22T08:05:06;99810.63;;;13.94;57.59
76132;BME280;64877;50.994;13.650;2024-03-22T08:07:32;99809.19;;;13.90;57.85
76132;BME280;64877;50.994;13.650;2024-03-22T08:09:57;99808.69;;;14.15;57.08
76132;BME280;64877;50.994;13.650;2024-03-22T08:12:24;99803.00;;;14.18;56.29
76132;BME280;64877;50.994;13.650;2024-03-22T08:14:50;99807.63;;;14.37;56.45
76132;BME280;64877;50.994;13.650;2024-03-22T08:17:16;99799.03;;;14.42;55.81
76132;BME280;64877;50.994;13.650;2024-03-22T08:19:42;99802.22;;;14.47;55.73
76132;BME280;64877;50.994;13.650;2024-03-22T08:22:07;99804.84;;;14.58;56.58
76132;BME280;64877;50.994;13.650;2024-03-22T08:24:32;99791.53;;;14.74;54.46
76132;BME280;64877;50.994;13.650;2024-03-22T08:26:59;99787.97;;;14.74;54.36
76132;BME280;64877;50.994;13.650;2024-03-22T08:29:24;99786.94;;;14.65;55.77
76132;BME280;64877;50.994;13.650;2024-03-22T08:31:50;99789.81;;;14.73;55.22
76132;BME280;64877;50.994;13.650;2024-03-22T08:34:15;99795.97;;;14.85;52.91
76132;BME280;64877;50.994;13.650;2024-03-22T08:36:40;99783.97;;;14.78;53.98
76132;BME280;64877;50.994;13.650;2024-03-22T08:39:06;99789.09;;;14.81;53.80
76132;BME280;64877;50.994;13.650;2024-03-22T08:41:35;99781.38;;;14.86;52.76
76132;BME280;64877;50.994;13.650;2024-03-22T08:44:00;99776.22;;;14.83;53.14
76132;BME280;64877;50.994;13.650;2024-03-22T08:46:26;99776.22;;;14.73;52.94
76132;BME280;64877;50.994;13.650;2024-03-22T08:48:53;99778.34;;;14.60;51.78
76132;BME280;64877;50.994;13.650;2024-03-22T08:51:19;99769.19;;;14.61;52.12
76132;BME280;64877;50.994;13.650;2024-03-22T08:53:44;99769.94;;;14.63;52.45
76132;BME280;64877;50.994;13.650;2024-03-22T08:56:10;99760.63;;;14.76;52.07
76132;BME280;64877;50.994;13.650;2024-03-22T08:58:38;99750.91;;;14.83;51.63
76132;BME280;64877;50.994;13.650;2024-03-22T09:01:04;99756.75;;;15.07;50.87
76132;BME280;64877;50.994;13.650;2024-03-22T09:03:29;99749.72;;;15.14;50.25
76132;BME280;64877;50.994;13.650;2024-03-22T09:05:56;99750.81;;;15.21;49.20
76132;BME280;64877;50.994;13.650;2024-03-22T09:08:21;99747.38;;;15.39;48.55
76132;BME280;64877;50.994;13.650;2024-03-22T09:10:47;99748.19;;;15.49;48.74
76132;BME280;64877;50.994;13.650;2024-03-22T09:13:13;99740.28;;;15.56;47.97
76132;BME280;64877;50.994;13.650;2024-03-22T09:15:39;99747.75;;;15.63;47.04
76132;BME280;64877;50.994;13.650;2024-03-22T09:18:05;99733.84;;;15.94;46.66
76132;BME280;64877;50.994;13.650;2024-03-22T09:20:31;99737.75;;;16.09;46.65
76132;BME280;64877;50.994;13.650;2024-03-22T09:22:56;99736.50;;;16.31;46.11
76132;BME280;64877;50.994;13.650;2024-03-22T09:25:23;99735.09;;;16.45;45.24
76132;BME280;64877;50.994;13.650;2024-03-22T09:27:49;99733.34;;;16.71;44.67
76132;BME280;64877;50.994;13.650;2024-03-22T09:30:15;99730.16;;;16.76;43.69
76132;BME280;64877;50.994;13.650;2024-03-22T09:32:41;99729.94;;;17.13;43.24
76132;BME280;64877;50.994;13.650;2024-03-22T09:35:08;99725.59;;;17.28;43.02
76132;BME280;64877;50.994;13.650;2024-03-22T09:37:33;99721.97;;;17.46;42.66
76132;BME280;64877;50.994;13.650;2024-03-22T09:39:58;99711.44;;;17.59;42.58
76132;BME280;64877;50.994;13.650;2024-03-22T09:42:25;99712.88;;;17.71;42.40
76132;BME280;64877;50.994;13.650;2024-03-22T09:44:51;99712.50;;;17.66;42.42
76132;BME280;64877;50.994;13.650;2024-03-22T09:47:18;99711.97;;;17.63;42.69
76132;BME280;64877;50.994;13.650;2024-03-22T09:49:46;99695.41;;;17.56;42.96
76132;BME280;64877;50.994;13.650;2024-03-22T09:52:14;99701.72;;;17.65;42.83
76132;BME280;64877;50.994;13.650;2024-03-22T09:54:42;99703.94;;;17.61;43.08
76132;BME280;64877;50.994;13.650;2024-03-22T09:57:17;99693.44;;;17.74;42.95
76132;BME280;64877;50.994;13.650;2024-03-22T09:59:45;99700.38;;;17.61;43.31
76132;BME280;64877;50.994;13.650;2024-03-22T10:02:13;99701.72;;;17.65;43.63
76132;BME280;64877;50.994;13.650;2024-03-22T10:04:40;99688.59;;;17.68;43.93
76132;BME280;64877;50.994;13.650;2024-03-22T10:07:06;99689.16;;;17.72;43.80
76132;BME280;64877;50.994;13.650;2024-03-22T10:09:33;99692.81;;;17.80;43.52
76132;BME280;64877;50.994;13.650;2024-03-22T10:11:59;99684.44;;;17.82;44.00
76132;BME280;64877;50.994;13.650;2024-03-22T10:14:24;99681.66;;;17.74;44.19
76132;BME280;64877;50.994;13.650;2024-03-22T10:16:53;99679.75;;;17.66;44.46
76132;BME280;64877;50.994;13.650;2024-03-22T10:19:22;99683.06;;;17.78;44.32
76132;BME280;64877;50.994;13.650;2024-03-22T10:22:00;99679.81;;;17.82;44.16
76132;BME280;64877;50.994;13.650;2024-03-22T10:24:27;99675.22;;;17.83;44.17
76132;BME280;64877;50.994;13.650;2024-03-22T10:26:52;99673.72;;;17.97;44.00
76132;BME280;64877;50.994;13.650;2024-03-22T10:29:18;99659.94;;;18.23;44.09
76132;BME280;64877;50.994;13.650;2024-03-22T10:31:45;99671.88;;;18.14;43.94
76132;BME280;64877;50.994;13.650;2024-03-22T10:34:11;99663.66;;;17.97;43.92
76132;BME280;64877;50.994;13.650;2024-03-22T10:36:38;99660.06;;;17.97;44.33
76132;BME280;64877;50.994;13.650;2024-03-22T10:39:05;99664.47;;;17.90;44.79
76132;BME280;64877;50.994;13.650;2024-03-22T10:41:31;99653.56;;;17.98;44.45
76132;BME280;64877;50.994;13.650;2024-03-22T10:43:57;99641.13;;;18.12;44.21
76132;BME280;64877;50.994;13.650;2024-03-22T10:46:29;99641.59;;;17.99;44.42
76132;BME280;64877;50.994;13.650;2024-03-22T10:48:55;99640.94;;;18.05;44.70
76132;BME280;64877;50.994;13.650;2024-03-22T10:51:23;99641.31;;;18.18;44.20
76132;BME280;64877;50.994;13.650;2024-03-22T10:53:51;99643.06;;;18.36;44.02
76132;BME280;64877;50.994;13.650;2024-03-22T10:56:23;99629.91;;;18.55;43.70
76132;BME280;64877;50.994;13.650;2024-03-22T10:58:50;99629.06;;;18.55;43.44
76132;BME280;64877;50.994;13.650;2024-03-22T11:01:25;99617.25;;;18.79;43.40
76132;BME280;64877;50.994;13.650;2024-03-22T11:03:50;99618.47;;;18.76;43.27
76132;BME280;64877;50.994;13.650;2024-03-22T11:06:22;99606.81;;;18.66;43.47
76132;BME280;64877;50.994;13.650;2024-03-22T11:08:51;99608.53;;;18.83;43.41
76132;BME280;64877;50.994;13.650;2024-03-22T11:11:22;99600.81;;;18.63;43.22
76132;BME280;64877;50.994;13.650;2024-03-22T11:13:47;99600.34;;;18.51;43.17
76132;BME280;64877;50.994;13.650;2024-03-22T11:16:15;99593.47;;;18.39;43.32
76132;BME280;64877;50.994;13.650;2024-03-22T11:18:42;99593.81;;;18.52;42.90
76132;BME280;64877;50.994;13.650;2024-03-22T11:21:07;99586.97;;;18.48;43.22
76132;BME280;64877;50.994;13.650;2024-03-22T11:23:35;99599.28;;;18.52;43.61
76132;BME280;64877;50.994;13.650;2024-03-22T11:26:02;99583.56;;;18.54;43.14
76132;BME280;64877;50.994;13.650;2024-03-22T11:28:28;99579.81;;;18.30;43.25
76132;BME280;64877;50.994;13.650;2024-03-22T11:30:53;99577.06;;;18.14;44.21
76132;BME280;64877;50.994;13.650;2024-03-22T11:33:19;99569.91;;;18.21;44.04
76132;BME280;64877;50.994;13.650;2024-03-22T11:35:44;99576.41;;;18.37;43.49
76132;BME280;64877;50.994;13.650;2024-03-22T11:38:10;99574.34;;;18.30;44.07
76132;BME280;64877;50.994;13.650;2024-03-22T11:40:36;99570.91;;;18.28;44.09
76132;BME280;64877;50.994;13.650;2024-03-22T11:43:02;99553.47;;;18.29;43.80
76132;BME280;64877;50.994;13.650;2024-03-22T11:45:28;99543.22;;;18.48;43.62
76132;BME280;64877;50.994;13.650;2024-03-22T11:47:54;99551.09;;;18.51;43.88
76132;BME280;64877;50.994;13.650;2024-03-22T11:50:19;99544.25;;;18.71;43.67
76132;BME280;64877;50.994;13.650;2024-03-22T11:52:45;99544.41;;;18.62;44.24
76132;BME280;64877;50.994;13.650;2024-03-22T11:55:14;99543.91;;;18.33;43.80
76132;BME280;64877;50.994;13.650;2024-03-22T11:57:40;99537.91;;;18.54;43.61
76132;BME280;64877;50.994;13.650;2024-03-22T12:00:06;99533.84;;;18.42;43.94
76132;BME280;64877;50.994;13.650;2024-03-22T12:02:44;99527.19;;;18.37;44.03
76132;BME280;64877;50.994;13.650;2024-03-22T12:05:10;99519.13;;;18.43;44.22
76132;BME280;64877;50.994;13.650;2024-03-22T12:07:36;99521.00;;;18.34;43.88
76132;BME280;64877;50.994;13.650;2024-03-22T12:10:03;99512.13;;;18.41;44.03
76132;BME280;64877;50.994;13.650;2024-03-22T12:12:29;99511.44;;;18.39;43.65
76132;BME280;64877;50.994;13.650;2024-03-22T12:14:55;99514.19;;;18.47;44.38
76132;BME280;64877;50.994;13.650;2024-03-22T12:17:21;99502.91;;;18.50;44.13
76132;BME280;64877;50.994;13.650;2024-03-22T12:19:46;99511.41;;;18.71;43.74
76132;BME280;64877;50.994;13.650;2024-03-22T12:22:12;99515.19;;;18.70;43.41
76132;BME280;64877;50.994;13.650;2024-03-22T12:24:38;99497.91;;;18.53;43.99
76132;BME280;64877;50.994;13.650;2024-03-22T12:27:04;99502.53;;;18.53;43.56
76132;BME280;64877;50.994;13.650;2024-03-22T12:29:32;99499.84;;;18.37;43.91
76132;BME280;64877;50.994;13.650;2024-03-22T12:31:58;99500.84;;;18.52;43.68
76132;BME280;64877;50.994;13.650;2024-03-22T12:34:26;99496.41;;;18.43;43.67
76132;BME280;64877;50.994;13.650;2024-03-22T12:36:51;99491.25;;;18.40;43.52
76132;BME280;64877;50.994;13.650;2024-03-22T12:39:16;99487.19;;;18.27;43.93
76132;BME280;64877;50.994;13.650;2024-03-22T12:41:42;99488.94;;;18.20;44.17